Time;durP1;ratioP1;P1;durP2;ratioP2;P2;SDS_P1;SDS_P2;PMS_P1;PMS_P2;Temp;Humidity;BMP_temperature;BMP_pressure;BME280_temperature;BME280_humidity;BME280_pressure;Samples;Min_cycle;Max_cycle;Signal;HPM_P1;HPM_P2
2021/12/01 00:01:41;;;;;;;779.40;715.80;;;10.90;99.90;;;;;;5061549;28;20189;-80
2021/12/01 00:04:07;;;;;;;777.13;713.80;;;10.90;99.90;;;;;;5049811;28;20205;-78
2021/12/01 00:06:33;;;;;;;772.20;709.20;;;10.90;99.90;;;;;;5061491;28;20186;-80
2021/12/01 00:08:58;;;;;;;761.07;699.07;;;10.90;99.90;;;;;;5063453;28;20261;-79
2021/12/01 00:11:24;;;;;;;765.43;703.70;;;11.00;99.90;;;;;;5050646;28;20201;-80
2021/12/01 00:13:50;;;;;;;771.67;710.07;;;11.00;99.90;;;;;;5060974;28;20193;-79
2021/12/01 00:16:15;;;;;;;766.40;704.80;;;11.10;99.90;;;;;;5067589;28;20689;-80
2021/12/01 00:18:41;;;;;;;533.13;489.37;;;11.10;99.90;;;;;;5050314;28;20346;-79
2021/12/01 00:21:07;;;;;;;520.47;477.43;;;11.10;99.90;;;;;;5059868;28;20194;-80
2021/12/01 00:23:33;;;;;;;529.00;487.20;;;11.10;99.90;;;;;;5061801;28;20186;-79
2021/12/01 00:25:59;;;;;;;507.10;465.23;;;11.10;99.90;;;;;;5049632;28;20336;-80
2021/12/01 00:28:25;;;;;;;512.73;471.23;;;11.10;99.90;;;;;;5060466;28;20194;-79
2021/12/01 00:30:52;;;;;;;497.87;456.80;;;11.10;99.90;;;;;;5061353;28;20202;-80
2021/12/01 00:33:22;;;;;;;504.47;462.80;;;11.10;99.90;;;;;;5061512;28;20240;-79
2021/12/01 00:35:54;;;;;;;514.73;471.43;;;11.10;99.90;;;;;;5062450;28;20213;-79
2021/12/01 00:38:21;;;;;;;520.83;476.57;;;11.10;99.90;;;;;;5060924;28;20190;-80
2021/12/01 00:40:47;;;;;;;537.70;491.50;;;11.00;99.90;;;;;;5050280;28;20193;-78
2021/12/01 00:43:17;;;;;;;553.27;506.33;;;11.00;99.90;;;;;;5062752;28;20196;-80
2021/12/01 00:45:55;;;;;;;540.00;493.33;;;11.00;99.90;;;;;;5048421;28;20233;-79
2021/12/01 00:48:21;;;;;;;538.77;491.90;;;10.90;99.90;;;;;;5063097;28;20174;-80
2021/12/01 00:50:48;;;;;;;537.63;490.93;;;10.90;99.90;;;;;;5048946;28;20182;-80
2021/12/01 00:53:13;;;;;;;537.50;491.23;;;10.90;99.90;;;;;;5060619;28;20196;-79
2021/12/01 00:55:42;;;;;;;522.13;476.70;;;10.90;99.90;;;;;;5051340;28;20190;-80
2021/12/01 00:58:08;;;;;;;528.13;482.47;;;10.90;99.90;;;;;;5034360;28;20190;-80
2021/12/01 01:00:34;;;;;;;549.10;501.63;;;10.90;99.90;;;;;;5049809;28;20186;-79
2021/12/01 01:03:00;;;;;;;546.13;499.23;;;10.90;99.90;;;;;;5061228;28;20205;-79
2021/12/01 01:05:26;;;;;;;542.97;496.10;;;10.90;99.90;;;;;;5059281;28;20867;-79
2021/12/01 01:07:53;;;;;;;530.67;484.53;;;10.90;99.90;;;;;;5060495;28;20190;-79
2021/12/01 01:10:56;;;;;;;537.23;490.73;;;10.90;99.90;;;;;;5060385;28;20218;-79
2021/12/01 01:16:23;;;;;;;526.40;480.23;;;10.90;99.90;;;;;;5059547;28;20208;-80
2021/12/01 01:18:55;;;;;;;519.40;474.50;;;10.90;99.90;;;;;;5050300;28;20213;-79
2021/12/01 01:21:22;;;;;;;509.33;464.80;;;10.90;99.90;;;;;;5060495;28;20189;-79
2021/12/01 01:23:49;;;;;;;519.80;474.73;;;11.00;99.90;;;;;;5048888;28;20193;-79
2021/12/01 01:26:17;;;;;;;513.27;469.00;;;11.00;99.90;;;;;;5059165;28;20674;-79
2021/12/01 01:28:43;;;;;;;518.10;473.43;;;10.90;99.90;;;;;;5058313;28;20184;-79
2021/12/01 01:31:10;;;;;;;532.10;486.17;;;10.90;99.90;;;;;;5063498;28;20178;-79
2021/12/01 01:33:36;;;;;;;606.07;555.70;;;10.90;99.90;;;;;;5057503;28;20871;-79
2021/12/01 01:36:02;;;;;;;785.27;722.13;;;10.80;99.90;;;;;;5041650;28;20214;-79
2021/12/01 01:38:31;;;;;;;781.07;718.53;;;10.80;99.90;;;;;;5048016;28;20205;-79
2021/12/01 01:41:00;;;;;;;772.53;710.17;;;10.80;99.90;;;;;;5064152;28;20204;-80
2021/12/01 01:43:26;;;;;;;775.20;712.80;;;10.80;99.90;;;;;;5043698;28;20637;-79
2021/12/01 01:45:53;;;;;;;765.83;703.77;;;10.70;99.90;;;;;;5058332;28;20247;-80
2021/12/01 01:48:28;;;;;;;759.20;697.57;;;10.70;99.90;;;;;;5060942;28;20235;-79
2021/12/01 01:50:54;;;;;;;765.83;704.33;;;10.70;99.90;;;;;;5063494;28;20185;-80
2021/12/01 01:53:22;;;;;;;768.47;707.07;;;10.70;99.90;;;;;;5047610;28;20186;-79
2021/12/01 01:55:50;;;;;;;771.57;709.10;;;10.70;99.90;;;;;;5033454;28;20181;-78
2021/12/01 01:58:18;;;;;;;774.73;711.83;;;10.70;99.90;;;;;;5059859;28;20185;-79
2021/12/01 02:01:06;;;;;;;780.90;717.50;;;10.60;99.90;;;;;;5062709;28;20298;-81
2021/12/01 02:03:32;;;;;;;778.87;715.87;;;10.60;99.90;;;;;;5060968;28;20186;-79
2021/12/01 02:05:57;;;;;;;785.83;722.43;;;10.50;99.90;;;;;;5062374;28;20184;-79
2021/12/01 02:08:31;;;;;;;783.20;720.00;;;10.50;99.90;;;;;;5065231;28;20202;-80
2021/12/01 02:10:59;;;;;;;786.77;723.63;;;10.40;99.90;;;;;;5034839;28;20189;-80
2021/12/01 02:13:25;;;;;;;778.60;715.70;;;10.40;99.90;;;;;;5059622;28;20194;-79
2021/12/01 02:15:53;;;;;;;778.33;715.37;;;10.40;99.90;;;;;;5062843;28;20190;-80
2021/12/01 02:18:19;;;;;;;781.53;718.83;;;10.40;99.90;;;;;;5050149;28;20280;-81
2021/12/01 02:21:03;;;;;;;781.53;718.47;;;10.40;99.90;;;;;;5064908;28;20201;-80
2021/12/01 02:23:29;;;;;;;778.60;716.13;;;10.30;99.90;;;;;;5062369;28;20193;-80
2021/12/01 02:25:55;;;;;;;776.20;714.07;;;10.30;99.90;;;;;;5060759;28;20265;-81
2021/12/01 02:28:21;;;;;;;773.77;712.17;;;10.30;99.90;;;;;;5065497;28;20269;-81
2021/12/01 02:30:47;;;;;;;772.73;711.50;;;10.30;99.90;;;;;;5060169;28;20197;-80
2021/12/01 02:33:13;;;;;;;768.87;707.97;;;10.30;99.90;;;;;;5047896;28;20213;-80
2021/12/01 02:35:39;;;;;;;566.70;519.00;;;10.30;99.90;;;;;;5065557;28;20686;-80
2021/12/01 02:38:05;;;;;;;563.10;516.33;;;10.30;99.90;;;;;;5060967;28;20192;-80
2021/12/01 02:40:34;;;;;;;563.07;516.70;;;10.30;99.90;;;;;;5048646;28;20260;-80
2021/12/01 02:42:59;;;;;;;550.03;504.53;;;10.30;99.90;;;;;;5061615;28;20182;-79
2021/12/01 02:45:25;;;;;;;552.57;506.70;;;10.30;99.90;;;;;;5059652;28;20229;-79
2021/12/01 02:47:51;;;;;;;558.17;511.37;;;10.30;99.90;;;;;;5066086;28;20293;-79
2021/12/01 02:50:17;;;;;;;676.07;622.03;;;10.30;99.90;;;;;;5059627;28;20225;-79
2021/12/01 02:52:42;;;;;;;769.60;707.70;;;10.20;99.90;;;;;;5065088;28;20686;-80
2021/12/01 02:55:10;;;;;;;770.80;708.40;;;10.20;99.90;;;;;;5065419;28;20189;-79
2021/12/01 02:57:49;;;;;;;779.53;716.63;;;10.20;99.90;;;;;;5050039;28;20205;-80
2021/12/01 03:00:17;;;;;;;774.67;711.87;;;10.10;99.90;;;;;;5066997;28;20209;-81
2021/12/01 03:02:45;;;;;;;783.53;719.57;;;10.00;99.90;;;;;;5061013;28;20217;-80
2021/12/01 03:05:10;;;;;;;782.20;718.60;;;10.00;99.90;;;;;;5059484;28;20202;-79
2021/12/01 03:07:38;;;;;;;771.87;708.60;;;10.00;99.90;;;;;;5033471;28;20189;-79
2021/12/01 03:10:05;;;;;;;782.40;718.63;;;9.90;99.90;;;;;;5059569;28;20210;-80
2021/12/01 03:12:37;;;;;;;774.97;711.43;;;9.90;99.90;;;;;;5063972;28;20608;-79
2021/12/01 03:15:05;;;;;;;774.03;710.37;;;9.90;99.90;;;;;;5061822;28;20193;-79
2021/12/01 03:17:32;;;;;;;776.23;712.33;;;9.90;99.90;;;;;;5061449;28;20186;-80
2021/12/01 03:19:59;;;;;;;769.57;706.10;;;9.80;99.90;;;;;;5061534;28;20309;-80
2021/12/01 03:22:25;;;;;;;769.90;706.23;;;9.80;99.90;;;;;;5059836;28;20236;-81
2021/12/01 03:24:52;;;;;;;772.60;709.20;;;9.80;99.90;;;;;;5060248;28;20179;-80
2021/12/01 03:27:18;;;;;;;779.93;716.63;;;9.80;99.90;;;;;;5049480;28;20213;-80
2021/12/01 03:29:48;;;;;;;782.70;719.50;;;9.80;99.90;;;;;;5060090;28;20953;-80
2021/12/01 03:32:15;;;;;;;771.20;708.77;;;9.80;99.90;;;;;;5057814;28;20194;-80
2021/12/01 03:34:42;;;;;;;772.60;710.80;;;9.80;99.90;;;;;;5063742;28;20205;-79
2021/12/01 03:37:09;;;;;;;767.73;706.10;;;9.80;99.90;;;;;;5052570;28;20217;-80
2021/12/01 03:39:35;;;;;;;767.47;706.47;;;9.70;99.90;;;;;;5064384;28;20627;-81
2021/12/01 03:42:01;;;;;;;632.67;580.90;;;9.80;99.90;;;;;;5068680;28;20191;-80
2021/12/01 03:44:27;;;;;;;614.23;563.83;;;9.80;99.90;;;;;;5068442;28;20233;-79
2021/12/01 03:46:53;;;;;;;621.63;570.73;;;9.70;99.90;;;;;;5052441;28;20360;-80
2021/12/01 03:49:19;;;;;;;619.97;569.07;;;9.70;99.90;;;;;;5034928;28;20624;-80
2021/12/01 03:51:45;;;;;;;622.63;571.53;;;9.70;99.90;;;;;;5064119;28;20277;-80
2021/12/01 03:54:11;;;;;;;635.00;583.20;;;9.70;99.90;;;;;;5036738;28;20224;-79
2021/12/01 03:56:37;;;;;;;620.27;569.30;;;9.70;99.90;;;;;;5069666;28;20659;-79
2021/12/01 03:59:04;;;;;;;620.10;569.33;;;9.70;99.90;;;;;;5052095;28;20217;-79
2021/12/01 04:01:30;;;;;;;611.90;561.63;;;9.60;99.90;;;;;;5063432;28;20268;-80
2021/12/01 04:03:55;;;;;;;613.30;563.30;;;9.60;99.90;;;;;;5051192;28;20296;-79
2021/12/01 04:06:21;;;;;;;604.00;554.53;;;9.60;99.90;;;;;;5063411;28;20622;-79
2021/12/01 04:08:47;;;;;;;599.03;549.73;;;9.60;99.90;;;;;;5068050;28;20205;-81
2021/12/01 04:11:13;;;;;;;592.70;543.90;;;9.60;99.90;;;;;;5066606;28;20219;-80
2021/12/01 04:13:38;;;;;;;590.53;542.07;;;9.60;99.90;;;;;;5051465;28;20664;-81
2021/12/01 04:16:05;;;;;;;590.47;542.27;;;9.60;99.90;;;;;;5051558;28;20193;-80
2021/12/01 04:18:30;;;;;;;583.20;535.60;;;9.60;99.90;;;;;;5066956;28;20201;-80
2021/12/01 04:20:56;;;;;;;621.37;571.47;;;9.60;99.90;;;;;;5062659;28;20693;-80
2021/12/01 04:23:22;;;;;;;610.00;561.07;;;9.60;99.90;;;;;;5050406;28;20760;-80
2021/12/01 04:25:48;;;;;;;632.53;582.60;;;9.60;99.90;;;;;;5063112;28;20569;-79
2021/12/01 04:28:13;;;;;;;621.80;571.17;;;9.60;99.90;;;;;;5050674;28;20213;-80
2021/12/01 04:30:40;;;;;;;655.93;603.07;;;9.50;99.90;;;;;;5052075;28;20215;-80
2021/12/01 04:33:05;;;;;;;675.67;621.27;;;9.50;99.90;;;;;;5062963;28;20189;-79
2021/12/01 04:35:31;;;;;;;683.10;628.20;;;9.50;99.90;;;;;;5050219;28;20306;-80
2021/12/01 04:37:58;;;;;;;691.60;636.40;;;9.50;99.90;;;;;;5067652;28;20210;-81
2021/12/01 04:40:24;;;;;;;720.90;663.03;;;9.50;99.90;;;;;;5060373;28;20260;-80
2021/12/01 04:42:50;;;;;;;725.83;667.83;;;9.40;99.90;;;;;;5062402;28;21752;-79
2021/12/01 04:45:17;;;;;;;730.10;671.60;;;9.40;99.90;;;;;;5033773;28;20201;-79
2021/12/01 04:47:49;;;;;;;717.17;659.77;;;9.40;99.90;;;;;;5045801;28;20243;-79
2021/12/01 04:50:17;;;;;;;724.60;667.50;;;9.40;99.90;;;;;;5058769;28;20228;-79
2021/12/01 04:52:43;;;;;;;734.57;677.13;;;9.40;99.90;;;;;;5050040;28;20190;-81
2021/12/01 04:55:10;;;;;;;730.33;672.33;;;9.40;99.90;;;;;;5062810;28;20201;-80
2021/12/01 04:57:39;;;;;;;731.03;673.07;;;9.40;99.90;;;;;;5068721;28;20970;-80
2021/12/01 05:00:07;;;;;;;742.67;683.63;;;9.40;99.90;;;;;;5061471;28;20228;-79
2021/12/01 05:02:33;;;;;;;782.17;719.37;;;9.30;99.90;;;;;;5049423;28;20308;-79
2021/12/01 05:04:58;;;;;;;787.07;724.47;;;9.30;99.90;;;;;;5050816;28;20217;-80
2021/12/01 05:07:25;;;;;;;771.87;709.90;;;9.40;99.90;;;;;;5061407;28;20194;-80
2021/12/01 05:09:51;;;;;;;781.00;718.47;;;9.30;99.90;;;;;;5044343;28;20250;-80
2021/12/01 05:12:17;;;;;;;799.23;737.53;;;9.40;99.90;;;;;;5066324;28;20646;-80
2021/12/01 05:14:42;;;;;;;781.73;719.83;;;9.30;99.90;;;;;;5049706;28;20197;-79
2021/12/01 05:17:08;;;;;;;784.37;722.07;;;9.40;99.90;;;;;;5044213;28;20215;-79
2021/12/01 05:19:35;;;;;;;783.70;721.53;;;9.40;99.90;;;;;;5033639;28;20313;-79
2021/12/01 05:22:02;;;;;;;790.50;728.57;;;9.40;99.90;;;;;;5050547;28;20243;-80
2021/12/01 05:24:28;;;;;;;785.47;723.27;;;9.30;99.90;;;;;;5046072;28;20220;-80
2021/12/01 05:26:54;;;;;;;746.90;688.00;;;9.30;99.90;;;;;;5066177;28;20186;-81
2021/12/01 05:29:21;;;;;;;733.40;675.30;;;9.40;99.90;;;;;;5060859;28;20189;-80
2021/12/01 05:31:48;;;;;;;748.63;690.17;;;9.40;99.90;;;;;;5064485;28;20186;-80
2021/12/01 05:34:14;;;;;;;739.80;681.07;;;9.30;99.90;;;;;;5065126;28;20214;-79
2021/12/01 05:36:40;;;;;;;740.87;682.57;;;9.30;99.90;;;;;;5066432;28;20228;-80
2021/12/01 05:39:05;;;;;;;740.90;682.43;;;9.30;99.90;;;;;;5060776;28;20714;-81
2021/12/01 05:41:31;;;;;;;737.33;679.43;;;9.30;99.90;;;;;;5049602;28;20200;-78
2021/12/01 05:43:57;;;;;;;772.00;709.10;;;9.30;99.90;;;;;;5063920;28;20190;-80
2021/12/01 05:46:23;;;;;;;777.60;715.10;;;9.30;99.90;;;;;;5043963;28;20256;-79
2021/12/01 05:48:51;;;;;;;776.53;713.83;;;9.30;99.90;;;;;;5049105;28;21882;-80
2021/12/01 05:51:18;;;;;;;782.73;720.47;;;9.30;99.90;;;;;;5033025;28;20233;-80
2021/12/01 05:53:45;;;;;;;777.80;715.20;;;9.30;99.90;;;;;;5030685;28;20284;-79
2021/12/01 05:56:10;;;;;;;790.03;726.53;;;9.30;99.90;;;;;;5064518;28;20190;-79
2021/12/01 05:58:36;;;;;;;790.47;727.17;;;9.20;99.90;;;;;;5049036;28;20217;-80
2021/12/01 06:01:02;;;;;;;791.17;727.67;;;9.30;99.90;;;;;;5060753;28;20194;-81
2021/12/01 06:03:28;;;;;;;801.70;738.57;;;9.30;99.90;;;;;;5062233;28;20224;-81
2021/12/01 06:05:54;;;;;;;786.33;723.63;;;9.30;99.90;;;;;;5050381;28;20198;-80
2021/12/01 06:08:19;;;;;;;778.73;716.20;;;9.30;99.90;;;;;;5063883;28;20400;-80
2021/12/01 06:10:45;;;;;;;781.90;719.07;;;9.30;99.90;;;;;;5049858;28;20557;-80
2021/12/01 06:13:19;;;;;;;788.93;726.00;;;9.30;99.90;;;;;;5061769;28;20189;-80
2021/12/01 06:15:49;;;;;;;792.60;729.83;;;9.30;99.90;;;;;;5060490;28;20801;-80
2021/12/01 06:18:15;;;;;;;782.93;719.83;;;9.30;99.90;;;;;;5061516;28;20197;-81
2021/12/01 06:20:42;;;;;;;788.43;725.40;;;9.30;99.90;;;;;;5063652;28;20217;-81
2021/12/01 06:23:09;;;;;;;794.30;730.80;;;9.30;99.90;;;;;;5052521;28;20204;-79
2021/12/01 06:25:35;;;;;;;781.67;718.80;;;9.30;99.90;;;;;;5083795;28;20215;-80
2021/12/01 06:28:01;;;;;;;785.20;722.00;;;9.30;99.90;;;;;;5064555;28;20193;-79
2021/12/01 06:30:31;;;;;;;784.77;721.33;;;9.30;99.90;;;;;;5032527;28;20204;-80
2021/12/01 06:32:57;;;;;;;786.87;723.77;;;9.30;99.90;;;;;;5061055;28;20716;-80
2021/12/01 06:35:23;;;;;;;784.63;721.53;;;9.30;99.90;;;;;;5050016;28;20208;-82
2021/12/01 06:37:50;;;;;;;775.80;712.87;;;9.30;99.90;;;;;;5049047;28;20632;-79
2021/12/01 06:40:17;;;;;;;793.30;730.10;;;9.30;99.90;;;;;;5045385;28;20240;-81
2021/12/01 06:42:43;;;;;;;787.93;724.93;;;9.30;99.90;;;;;;5045264;28;20186;-80
2021/12/01 06:45:11;;;;;;;785.77;722.87;;;9.30;99.90;;;;;;5047990;28;20193;-79
2021/12/01 06:47:38;;;;;;;780.63;718.00;;;9.40;99.90;;;;;;5061095;28;20299;-79
2021/12/01 06:50:05;;;;;;;784.63;722.37;;;9.40;99.90;;;;;;5064414;28;20212;-81
2021/12/01 06:52:31;;;;;;;794.63;732.33;;;9.40;99.90;;;;;;5031501;28;20620;-78
2021/12/01 06:54:58;;;;;;;779.83;717.77;;;9.40;99.90;;;;;;5048159;28;20197;-80
2021/12/01 06:57:24;;;;;;;781.80;720.33;;;9.50;99.90;;;;;;5031449;28;20189;-81
2021/12/01 06:59:50;;;;;;;787.87;726.47;;;9.50;99.90;;;;;;5060983;28;20304;-80
2021/12/01 07:02:17;;;;;;;791.27;730.13;;;9.50;99.90;;;;;;5049946;28;20280;-80
2021/12/01 07:04:46;;;;;;;777.80;717.33;;;9.50;99.90;;;;;;5031228;28;20704;-79
2021/12/01 07:07:13;;;;;;;779.20;718.97;;;9.60;99.90;;;;;;5059230;28;20186;-81
2021/12/01 07:09:39;;;;;;;777.90;718.33;;;9.60;99.90;;;;;;5062492;28;20227;-79
2021/12/01 07:12:06;;;;;;;606.43;558.87;;;9.70;99.90;;;;;;5070232;28;20620;-80
2021/12/01 07:14:32;;;;;;;598.47;551.07;;;9.70;99.90;;;;;;5067883;28;20603;-81
2021/12/01 07:16:59;;;;;;;584.77;538.30;;;9.70;99.90;;;;;;5069164;28;20234;-81
2021/12/01 07:19:26;;;;;;;606.37;558.10;;;9.70;99.90;;;;;;5070383;28;20777;-80
2021/12/01 07:21:51;;;;;;;628.20;578.53;;;9.70;99.90;;;;;;5048725;28;20681;-80
2021/12/01 07:24:20;;;;;;;624.60;575.33;;;9.70;99.90;;;;;;5069077;28;20433;-81
2021/12/01 07:26:46;;;;;;;653.27;602.00;;;9.70;99.90;;;;;;5062781;28;20178;-80
2021/12/01 07:29:11;;;;;;;686.77;633.20;;;9.70;99.90;;;;;;5053153;28;20258;-81
2021/12/01 07:31:37;;;;;;;705.83;650.53;;;9.70;99.90;;;;;;5052483;28;20327;-82
2021/12/01 07:34:03;;;;;;;783.80;722.20;;;9.70;99.90;;;;;;5035346;28;20270;-81
2021/12/01 07:36:29;;;;;;;783.97;722.03;;;9.70;99.90;;;;;;5050553;28;20220;-81
2021/12/01 07:38:55;;;;;;;786.27;724.20;;;9.70;99.90;;;;;;5062123;28;20257;-80
2021/12/01 07:41:21;;;;;;;783.20;720.80;;;9.70;99.90;;;;;;5064658;28;20181;-83
2021/12/01 07:43:47;;;;;;;791.20;729.00;;;9.80;99.90;;;;;;5069840;28;20192;-81
2021/12/01 07:46:14;;;;;;;785.57;723.37;;;9.80;99.90;;;;;;5052049;28;20233;-81
2021/12/01 07:48:39;;;;;;;787.27;724.70;;;9.80;99.90;;;;;;5076590;28;20203;-81
2021/12/01 07:51:05;;;;;;;790.97;728.60;;;9.80;99.90;;;;;;5048259;28;20288;-80
2021/12/01 07:53:31;;;;;;;779.50;716.93;;;9.70;99.90;;;;;;5063974;28;20261;-81
2021/12/01 07:55:57;;;;;;;793.37;730.27;;;9.70;99.90;;;;;;5047631;28;20257;-81
2021/12/01 07:58:23;;;;;;;776.93;714.57;;;9.80;99.90;;;;;;5048829;28;20582;-81
2021/12/01 08:00:49;;;;;;;785.70;723.70;;;9.70;99.90;;;;;;5066648;28;20297;-80
2021/12/01 08:03:14;;;;;;;783.73;721.53;;;9.70;99.90;;;;;;5036839;28;20310;-79
2021/12/01 08:05:41;;;;;;;786.60;725.17;;;9.80;99.90;;;;;;5062819;28;20651;-80
2021/12/01 08:08:07;;;;;;;783.27;722.40;;;9.70;99.90;;;;;;5061606;28;20187;-80
2021/12/01 08:10:33;;;;;;;773.23;713.57;;;9.80;99.90;;;;;;5050613;28;20328;-79
2021/12/01 08:13:00;;;;;;;761.87;702.77;;;9.70;99.90;;;;;;5034777;28;20776;-81
2021/12/01 08:15:27;;;;;;;524.07;483.03;;;9.70;99.90;;;;;;5068316;28;20196;-80
2021/12/01 08:17:53;;;;;;;506.37;466.70;;;9.70;99.90;;;;;;5052696;28;20189;-81
2021/12/01 08:20:19;;;;;;;505.77;467.67;;;9.80;99.90;;;;;;5034348;28;20210;-81
2021/12/01 08:22:45;;;;;;;495.53;458.43;;;9.70;99.90;;;;;;5069762;28;20185;-80
2021/12/01 08:25:11;;;;;;;484.70;448.00;;;9.60;99.90;;;;;;5052302;28;20181;-80
2021/12/01 08:27:37;;;;;;;488.57;451.93;;;9.60;99.90;;;;;;5070392;28;20270;-80
2021/12/01 08:30:05;;;;;;;470.63;435.53;;;9.50;99.90;;;;;;5064214;28;20209;-82
2021/12/01 08:32:30;;;;;;;467.13;431.87;;;9.50;99.90;;;;;;5066584;28;20190;-81
2021/12/01 08:34:56;;;;;;;466.40;432.13;;;9.50;99.90;;;;;;5050585;28;20329;-80
2021/12/01 08:37:22;;;;;;;444.67;412.43;;;9.50;99.90;;;;;;5069613;28;20208;-80
2021/12/01 08:39:49;;;;;;;428.03;397.50;;;9.40;99.90;;;;;;5065573;28;20205;-81
2021/12/01 08:42:19;;;;;;;416.27;386.43;;;9.40;99.90;;;;;;5064403;28;20217;-82
2021/12/01 08:44:46;;;;;;;402.17;373.53;;;9.40;99.90;;;;;;5064462;28;20186;-81
2021/12/01 08:47:17;;;;;;;389.80;362.20;;;9.40;99.90;;;;;;5035274;28;20226;-81
2021/12/01 08:49:43;;;;;;;364.63;339.10;;;9.40;99.90;;;;;;5061855;28;20749;-79
2021/12/01 08:52:09;;;;;;;340.03;316.03;;;9.40;99.90;;;;;;5069118;28;20275;-81
2021/12/01 08:54:36;;;;;;;338.77;315.90;;;9.50;99.90;;;;;;5062135;28;20198;-80
2021/12/01 08:57:03;;;;;;;327.20;305.20;;;9.40;99.90;;;;;;5068440;28;20676;-81
2021/12/01 08:59:29;;;;;;;324.70;303.13;;;9.40;99.90;;;;;;5063984;28;20300;-80
2021/12/01 09:01:55;;;;;;;309.50;289.50;;;9.40;99.90;;;;;;5035738;28;20189;-80
2021/12/01 09:04:21;;;;;;;296.10;277.00;;;9.50;99.90;;;;;;5068351;28;20265;-81
2021/12/01 09:06:47;;;;;;;298.27;278.93;;;9.60;99.90;;;;;;5051976;28;20217;-81
2021/12/01 09:09:18;;;;;;;300.93;282.03;;;9.60;99.90;;;;;;5051077;28;20201;-81
2021/12/01 09:11:48;;;;;;;297.23;278.70;;;9.60;99.90;;;;;;5060751;28;20632;-81
2021/12/01 09:14:15;;;;;;;288.23;270.33;;;9.50;99.90;;;;;;5068313;28;20190;-81
2021/12/01 09:16:41;;;;;;;301.40;283.77;;;9.50;99.90;;;;;;5067088;28;20196;-81
2021/12/01 09:19:07;;;;;;;295.57;278.77;;;9.50;99.90;;;;;;5079414;28;20897;-80
2021/12/01 09:21:34;;;;;;;308.73;290.70;;;9.40;99.90;;;;;;5043057;28;20285;-82
2021/12/01 09:24:00;;;;;;;286.77;270.23;;;9.30;99.90;;;;;;5060977;28;20193;-82
2021/12/01 09:26:26;;;;;;;257.33;242.47;;;9.20;99.90;;;;;;5063526;28;20190;-81
2021/12/01 09:28:51;;;;;;;262.47;247.07;;;9.10;99.90;;;;;;5061440;28;20318;-79
2021/12/01 09:31:17;;;;;;;318.17;299.27;;;9.10;99.90;;;;;;5050403;28;20204;-81
2021/12/01 09:33:43;;;;;;;443.33;412.30;;;9.20;99.90;;;;;;5051194;28;20205;-80
2021/12/01 09:36:09;;;;;;;478.13;443.80;;;9.10;99.90;;;;;;5068367;28;20213;-81
2021/12/01 09:38:35;;;;;;;497.17;461.37;;;9.00;99.90;;;;;;5066218;28;20293;-81
2021/12/01 09:41:02;;;;;;;505.17;467.97;;;8.90;99.90;;;;;;5035633;28;20193;-81
2021/12/01 09:43:31;;;;;;;480.47;445.00;;;8.90;99.90;;;;;;5044340;28;20189;-80
2021/12/01 09:45:59;;;;;;;469.00;435.07;;;8.90;99.90;;;;;;5061049;28;20193;-82
2021/12/01 09:48:26;;;;;;;450.77;418.10;;;8.90;99.90;;;;;;5066977;28;20222;-81
2021/12/01 09:50:52;;;;;;;444.47;413.60;;;8.90;99.90;;;;;;5049597;28;20197;-81
2021/12/01 09:53:18;;;;;;;414.40;385.03;;;9.00;99.90;;;;;;5049600;28;20193;-81
2021/12/01 09:55:44;;;;;;;397.43;369.73;;;9.10;99.90;;;;;;5049955;28;20788;-80
2021/12/01 09:58:16;;;;;;;375.13;349.63;;;9.10;99.90;;;;;;5034681;28;20213;-81
2021/12/01 10:00:46;;;;;;;372.87;347.67;;;9.10;99.90;;;;;;5062694;28;20279;-81
2021/12/01 10:03:12;;;;;;;381.07;355.10;;;9.00;99.90;;;;;;5060656;28;20188;-80
2021/12/01 10:06:04;;;;;;;390.83;364.40;;;9.00;99.90;;;;;;5050235;28;20209;-81
2021/12/01 10:08:42;;;;;;;388.70;362.87;;;9.00;99.90;;;;;;5067127;28;20730;-82
2021/12/01 10:11:16;;;;;;;387.60;361.00;;;9.00;99.90;;;;;;5062081;28;20634;-80
2021/12/01 10:13:55;;;;;;;386.17;360.23;;;9.00;99.90;;;;;;5060704;28;20248;-79
2021/12/01 10:16:22;;;;;;;407.83;380.90;;;8.90;99.90;;;;;;5058129;28;20824;-81
2021/12/01 10:18:51;;;;;;;389.47;362.90;;;8.90;99.90;;;;;;5026512;28;20590;-80
2021/12/01 10:21:18;;;;;;;369.90;344.93;;;8.90;99.90;;;;;;5060876;28;20197;-80
2021/12/01 10:23:55;;;;;;;362.20;338.37;;;9.00;99.90;;;;;;5060175;28;20178;-81
2021/12/01 10:26:27;;;;;;;339.23;317.63;;;9.20;99.90;;;;;;5061655;28;20186;-81
2021/12/01 10:29:04;;;;;;;310.57;290.30;;;9.40;99.90;;;;;;5060287;28;20217;-80
2021/12/01 10:31:36;;;;;;;307.50;287.30;;;9.50;99.90;;;;;;5068390;28;20197;-80
2021/12/01 10:34:18;;;;;;;295.63;276.57;;;9.70;99.90;;;;;;5082628;28;20210;-81
2021/12/01 10:36:47;;;;;;;297.60;278.20;;;9.80;99.90;;;;;;5060702;28;20217;-80
2021/12/01 10:39:13;;;;;;;295.20;276.50;;;9.80;99.90;;;;;;5060019;28;20565;-80
2021/12/01 10:41:41;;;;;;;303.67;284.97;;;9.90;99.90;;;;;;5061462;28;20333;-80
2021/12/01 10:44:17;;;;;;;322.73;303.13;;;9.80;99.90;;;;;;5066301;28;20189;-81
2021/12/01 10:46:49;;;;;;;417.67;389.97;;;9.70;99.90;;;;;;5064664;28;20207;-80
2021/12/01 10:49:16;;;;;;;432.77;403.80;;;9.60;99.90;;;;;;5065818;28;20678;-81
2021/12/01 10:51:44;;;;;;;409.60;382.17;;;9.50;99.90;;;;;;5071473;28;20590;-82
2021/12/01 10:54:20;;;;;;;395.20;369.57;;;9.40;99.90;;;;;;5064702;28;20190;-81
2021/12/01 10:57:06;;;;;;;377.10;353.07;;;9.40;99.90;;;;;;5065017;28;20220;-80
2021/12/01 10:59:44;;;;;;;360.57;338.17;;;9.40;99.90;;;;;;5064567;28;20208;-82
2021/12/01 11:02:11;;;;;;;332.50;312.43;;;9.50;99.90;;;;;;5064587;28;20177;-81
2021/12/01 11:04:44;;;;;;;333.13;312.87;;;9.50;99.90;;;;;;5064926;28;20624;-81
2021/12/01 11:07:31;;;;;;;280.63;263.73;;;9.50;99.90;;;;;;5070429;28;20189;-81
2021/12/01 11:10:19;;;;;;;239.53;225.97;;;9.60;99.90;;;;;;5062719;28;20640;-82
2021/12/01 11:13:01;;;;;;;205.40;194.23;;;9.70;99.90;;;;;;5063353;28;20233;-81
2021/12/01 11:15:30;;;;;;;184.50;174.77;;;9.70;99.90;;;;;;5084921;28;20956;-81
2021/12/01 11:17:57;;;;;;;171.07;161.80;;;9.80;99.90;;;;;;5064194;28;20268;-81
2021/12/01 11:20:34;;;;;;;146.63;138.83;;;9.80;99.90;;;;;;5079364;28;20362;-81
2021/12/01 11:23:13;;;;;;;141.50;134.10;;;9.80;99.90;;;;;;5067447;28;20185;-81
2021/12/01 11:25:40;;;;;;;144.70;137.20;;;9.80;99.90;;;;;;5064528;28;20625;-81
2021/12/01 11:28:13;;;;;;;119.63;113.33;;;9.80;99.90;;;;;;5051221;28;20198;-81
2021/12/01 11:30:40;;;;;;;103.73;98.50;;;9.80;99.90;;;;;;5063297;28;20284;-80
2021/12/01 11:33:07;;;;;;;95.53;90.10;;;9.80;99.90;;;;;;5068490;28;20627;-80
2021/12/01 11:35:32;;;;;;;80.47;76.57;;;9.80;99.90;;;;;;5077731;28;20279;-80
2021/12/01 11:37:59;;;;;;;78.00;73.57;;;9.80;99.90;;;;;;5063229;28;20634;-82
2021/12/01 11:40:30;;;;;;;68.67;64.67;;;9.80;99.90;;;;;;5035092;28;20240;-80
2021/12/01 11:42:57;;;;;;;59.87;56.00;;;9.90;99.90;;;;;;5060433;28;20201;-81
2021/12/01 11:45:24;;;;;;;56.77;53.90;;;9.90;99.90;;;;;;5063640;28;20186;-80
2021/12/01 11:47:52;;;;;;;50.53;47.67;;;9.90;99.90;;;;;;5046370;28;20560;-79
2021/12/01 11:50:31;;;;;;;50.53;47.33;;;9.90;99.90;;;;;;5051707;28;20220;-80
2021/12/01 11:53:16;;;;;;;39.17;36.43;;;9.90;99.90;;;;;;5065118;28;20193;-81
2021/12/01 11:56:17;;;;;;;38.00;35.50;;;9.90;99.90;;;;;;5064860;28;20382;-80
2021/12/01 11:59:15;;;;;;;31.40;29.47;;;9.90;99.90;;;;;;5062444;28;20193;-82
2021/12/01 12:01:49;;;;;;;32.63;30.57;;;9.90;99.90;;;;;;5052909;28;20284;-80
2021/12/01 12:04:18;;;;;;;50.43;47.37;;;10.00;99.90;;;;;;5085630;28;20198;-81
2021/12/01 12:06:46;;;;;;;48.03;45.30;;;9.90;99.90;;;;;;5067632;28;20619;-82
2021/12/01 12:09:14;;;;;;;53.77;50.37;;;9.80;99.90;;;;;;5067734;28;20666;-82
2021/12/01 12:11:52;;;;;;;50.50;46.93;;;9.80;99.90;;;;;;5063032;28;20181;-80
2021/12/01 12:14:26;;;;;;;43.13;40.47;;;9.80;99.90;;;;;;5085767;28;20185;-81
2021/12/01 12:17:14;;;;;;;44.60;41.90;;;9.70;99.90;;;;;;5065202;28;20264;-81
2021/12/01 12:19:46;;;;;;;50.40;46.97;;;9.70;99.90;;;;;;5062340;28;20402;-82
2021/12/01 12:22:19;;;;;;;48.37;45.47;;;9.80;99.90;;;;;;5062653;28;20186;-80
2021/12/01 12:24:52;;;;;;;50.43;47.17;;;9.80;99.90;;;;;;5063301;28;20178;-81